createdAt,value
2017-06-27T00:00:03.579Z,20.85
2017-06-27T00:00:07.888Z,20.91
2017-06-27T00:00:12.321Z,20.94
2017-06-27T00:00:16.635Z,20.83
2017-06-27T00:00:20.825Z,20.91
2017-06-27T00:00:25.126Z,20.88
2017-06-27T00:00:29.432Z,20.94
2017-06-27T00:00:33.771Z,20.9
2017-06-27T00:00:38.197Z,20.91
2017-06-27T00:00:42.618Z,20.88
2017-06-27T00:00:47.045Z,20.9
2017-06-27T00:00:51.409Z,20.88
2017-06-27T00:00:55.826Z,20.93
2017-06-27T00:01:00.245Z,20.88
2017-06-27T00:01:04.547Z,20.91
2017-06-27T00:01:08.970Z,20.9
2017-06-27T00:01:13.399Z,20.9
2017-06-27T00:01:17.825Z,20.91
2017-06-27T00:01:22.250Z,20.87
2017-06-27T00:01:26.554Z,20.9
2017-06-27T00:01:30.983Z,20.87
2017-06-27T00:01:35.412Z,20.9
2017-06-27T00:01:39.834Z,20.85
2017-06-27T00:01:44.257Z,20.88
2017-06-27T00:01:48.677Z,20.79
2017-06-27T00:01:53.132Z,20.81
2017-06-27T00:01:57.444Z,20.78
2017-06-27T00:02:01.912Z,20.83
2017-06-27T00:02:06.103Z,20.85
2017-06-27T00:02:10.531Z,20.9
2017-06-27T00:02:14.960Z,20.76
2017-06-27T00:02:19.155Z,20.78
2017-06-27T00:02:23.581Z,20.78
2017-06-27T00:02:28.003Z,20.81
2017-06-27T00:02:32.306Z,20.78
2017-06-27T00:02:36.737Z,20.85
2017-06-27T00:02:41.045Z,20.73
2017-06-27T00:02:45.470Z,20.78
2017-06-27T00:02:49.774Z,20.83
2017-06-27T00:02:54.077Z,20.82
2017-06-27T00:02:58.497Z,20.72
2017-06-27T00:03:02.970Z,20.72
2017-06-27T00:03:07.270Z,20.72
2017-06-27T00:03:11.689Z,20.73
2017-06-27T00:03:16.113Z,20.73
2017-06-27T00:03:20.424Z,20.75
2017-06-27T00:03:24.841Z,20.78
2017-06-27T00:03:29.144Z,20.81
2017-06-27T00:03:33.563Z,20.73
2017-06-27T00:03:37.985Z,20.75
2017-06-27T00:03:42.293Z,20.71
2017-06-27T00:03:46.720Z,20.76
2017-06-27T00:03:51.161Z,20.71
2017-06-27T00:03:55.467Z,20.79
2017-06-27T00:03:59.889Z,20.75
2017-06-27T00:04:04.085Z,20.76
2017-06-27T00:04:08.185Z,20.76
2017-06-27T00:04:12.602Z,20.71
2017-06-27T00:04:17.020Z,20.78
2017-06-27T00:04:21.325Z,20.79
2017-06-27T00:04:25.749Z,20.73
2017-06-27T00:04:30.171Z,20.71
2017-06-27T00:04:34.474Z,20.76
2017-06-27T00:04:38.779Z,20.72
2017-06-27T00:04:42.965Z,20.71
2017-06-27T00:04:47.395Z,20.72
2017-06-27T00:04:51.701Z,20.78
2017-06-27T00:04:56.128Z,20.73
2017-06-27T00:05:00.434Z,20.73
2017-06-27T00:05:05.110Z,20.69
2017-06-27T00:05:09.541Z,20.66
2017-06-27T00:05:13.962Z,20.72
2017-06-27T00:05:18.386Z,20.75
2017-06-27T00:05:22.811Z,20.72
2017-06-27T00:05:27.232Z,20.69
2017-06-27T00:05:31.668Z,20.71
2017-06-27T00:05:36.091Z,20.72
2017-06-27T00:05:40.395Z,20.71
2017-06-27T00:05:44.817Z,20.68
2017-06-27T00:05:49.244Z,20.75
2017-06-27T00:05:53.434Z,20.69
2017-06-27T00:05:57.511Z,20.71
2017-06-27T00:06:01.933Z,20.69
2017-06-27T00:06:06.122Z,20.63
2017-06-27T00:06:10.546Z,20.66
2017-06-27T00:06:14.986Z,20.66
2017-06-27T00:06:19.409Z,20.63
2017-06-27T00:06:23.831Z,20.66
2017-06-27T00:06:28.253Z,20.72
2017-06-27T00:06:32.687Z,20.68
2017-06-27T00:06:37.156Z,20.66
2017-06-27T00:06:41.341Z,20.68
2017-06-27T00:06:45.646Z,20.6
2017-06-27T00:06:49.949Z,20.64
2017-06-27T00:06:54.275Z,20.61
2017-06-27T00:06:58.477Z,20.61
2017-06-27T00:07:02.904Z,20.63
2017-06-27T00:07:07.089Z,20.58
2017-06-27T00:07:11.511Z,20.64
2017-06-27T00:07:15.939Z,20.63
2017-06-27T00:07:20.374Z,20.57
2017-06-27T00:07:24.794Z,20.6
2017-06-27T00:07:29.096Z,20.66
2017-06-27T00:07:33.518Z,20.58
2017-06-27T00:07:37.711Z,20.61
2017-06-27T00:07:42.137Z,20.56
2017-06-27T00:07:46.554Z,20.64
2017-06-27T00:07:50.974Z,20.66
2017-06-27T00:07:55.159Z,20.58
2017-06-27T00:07:59.343Z,20.57
2017-06-27T00:08:03.781Z,20.63
2017-06-27T00:08:08.206Z,20.6
2017-06-27T00:08:12.628Z,20.6
2017-06-27T00:08:16.934Z,20.6
2017-06-27T00:08:21.366Z,20.6
2017-06-27T00:08:25.787Z,20.6
2017-06-27T00:08:30.203Z,20.63
2017-06-27T00:08:34.625Z,20.6
2017-06-27T00:08:39.043Z,20.54
2017-06-27T00:08:43.469Z,20.57
2017-06-27T00:08:47.773Z,20.6
2017-06-27T00:08:52.191Z,20.56
2017-06-27T00:08:56.259Z,20.63
2017-06-27T00:09:00.681Z,20.6
2017-06-27T00:09:05.293Z,20.6
2017-06-27T00:09:09.723Z,20.51
2017-06-27T00:09:14.023Z,20.6
2017-06-27T00:09:18.442Z,20.6
2017-06-27T00:09:22.866Z,20.44
2017-06-27T00:09:27.205Z,20.51
2017-06-27T00:09:31.625Z,20.53
2017-06-27T00:09:36.047Z,20.51
2017-06-27T00:09:40.600Z,20.5
2017-06-27T00:09:45.028Z,20.53
2017-06-27T00:09:49.448Z,20.51
2017-06-27T00:09:53.632Z,20.51
2017-06-27T00:09:58.050Z,20.46
2017-06-27T00:10:02.354Z,20.5
2017-06-27T00:10:06.665Z,20.5
2017-06-27T00:10:11.090Z,20.53
2017-06-27T00:10:15.511Z,20.51
2017-06-27T00:10:19.933Z,20.51
2017-06-27T00:10:24.353Z,20.46
2017-06-27T00:10:28.667Z,20.46
2017-06-27T00:10:33.122Z,20.46
2017-06-27T00:10:37.541Z,20.5
2017-06-27T00:10:41.961Z,20.44
2017-06-27T00:10:46.382Z,20.46
2017-06-27T00:10:50.570Z,20.38
2017-06-27T00:10:54.640Z,20.48
2017-06-27T00:10:59.072Z,20.51
2017-06-27T00:11:03.493Z,20.5
2017-06-27T00:11:07.796Z,20.5
2017-06-27T00:11:12.109Z,20.48
2017-06-27T00:11:16.541Z,20.41
2017-06-27T00:11:20.959Z,20.42
2017-06-27T00:11:25.384Z,20.41
2017-06-27T00:11:29.804Z,20.38
2017-06-27T00:11:34.268Z,20.37
2017-06-27T00:11:38.685Z,20.35
2017-06-27T00:11:42.984Z,20.35
2017-06-27T00:11:47.406Z,20.38
2017-06-27T00:11:51.713Z,20.31
2017-06-27T00:11:56.136Z,20.38
2017-06-27T00:12:00.554Z,20.42
2017-06-27T00:12:05.156Z,20.38
2017-06-27T00:12:09.578Z,20.33
2017-06-27T00:12:14.002Z,20.26
2017-06-27T00:12:18.217Z,20.41
2017-06-27T00:12:22.637Z,20.35
2017-06-27T00:12:27.061Z,20.37
2017-06-27T00:12:31.364Z,20.41
2017-06-27T00:12:35.786Z,20.33
2017-06-27T00:12:40.092Z,20.35
2017-06-27T00:12:44.524Z,20.33
2017-06-27T00:12:48.944Z,20.3
2017-06-27T00:12:53.381Z,20.33
2017-06-27T00:12:57.684Z,20.22
2017-06-27T00:13:02.235Z,20.3
2017-06-27T00:13:06.655Z,20.33
2017-06-27T00:13:11.072Z,20.31
2017-06-27T00:13:15.492Z,20.27
2017-06-27T00:13:19.910Z,20.3
2017-06-27T00:13:24.337Z,20.3
2017-06-27T00:13:28.639Z,20.27
2017-06-27T00:13:32.945Z,20.23
2017-06-27T00:13:37.362Z,20.31
2017-06-27T00:13:41.666Z,20.34
2017-06-27T00:13:46.095Z,20.25
2017-06-27T00:13:50.514Z,20.22
2017-06-27T00:13:54.705Z,20.22
2017-06-27T00:13:59.129Z,20.22
2017-06-27T00:14:03.550Z,20.19
2017-06-27T00:14:07.744Z,20.17
2017-06-27T00:14:12.167Z,20.27
2017-06-27T00:14:16.593Z,20.13
2017-06-27T00:14:21.013Z,20.19
2017-06-27T00:14:25.434Z,20.17
2017-06-27T00:14:29.853Z,20.2
2017-06-27T00:14:34.275Z,20.16
2017-06-27T00:14:38.578Z,20.17
2017-06-27T00:14:43.003Z,20.17
2017-06-27T00:14:47.193Z,20.22
2017-06-27T00:14:51.616Z,20.12
2017-06-27T00:14:56.035Z,20.25
2017-06-27T00:15:00.454Z,20.13
2017-06-27T00:15:05.027Z,20.16
2017-06-27T00:15:09.334Z,20.16
2017-06-27T00:15:13.651Z,20.19
2017-06-27T00:15:18.072Z,20.15
2017-06-27T00:15:22.495Z,20.08
2017-06-27T00:15:26.913Z,20.17
2017-06-27T00:15:31.339Z,20.2
2017-06-27T00:15:35.770Z,20.1
2017-06-27T00:15:40.195Z,20.22
2017-06-27T00:15:44.614Z,20.13
2017-06-27T00:15:48.803Z,20.12
2017-06-27T00:15:53.256Z,20.13
2017-06-27T00:15:57.708Z,20.17
2017-06-27T00:16:02.132Z,20.15
2017-06-27T00:16:06.439Z,20.15
2017-06-27T00:16:10.744Z,20.08
2017-06-27T00:16:15.171Z,20.17
2017-06-27T00:16:19.481Z,20.1
2017-06-27T00:16:23.790Z,20.1
2017-06-27T00:16:28.217Z,20.08
2017-06-27T00:16:32.523Z,20.01
2017-06-27T00:16:36.832Z,20.02
2017-06-27T00:16:41.139Z,20.02
2017-06-27T00:16:45.563Z,20
2017-06-27T00:16:49.868Z,20.07
2017-06-27T00:16:54.291Z,20.05
2017-06-27T00:16:58.718Z,20.04
2017-06-27T00:17:03.145Z,20.01
2017-06-27T00:17:07.570Z,20.02
2017-06-27T00:17:11.756Z,20.01
2017-06-27T00:17:16.181Z,20.01
2017-06-27T00:17:20.489Z,20.04
2017-06-27T00:17:24.796Z,19.98
2017-06-27T00:17:29.217Z,20.04
2017-06-27T00:17:33.645Z,20
2017-06-27T00:17:37.950Z,19.98
2017-06-27T00:17:42.137Z,19.95
2017-06-27T00:17:46.565Z,19.98
2017-06-27T00:17:50.985Z,19.94
2017-06-27T00:17:55.403Z,19.97
2017-06-27T00:17:59.822Z,20.01
2017-06-27T00:18:04.548Z,20.01
2017-06-27T00:18:08.977Z,19.94
2017-06-27T00:18:13.281Z,19.89
2017-06-27T00:18:17.581Z,19.92
2017-06-27T00:18:22.004Z,19.87
2017-06-27T00:18:26.314Z,19.89
2017-06-27T00:18:30.744Z,19.87
2017-06-27T00:18:35.163Z,19.87
2017-06-27T00:18:39.463Z,19.8
2017-06-27T00:18:43.769Z,19.85
2017-06-27T00:18:48.229Z,19.86
2017-06-27T00:18:52.675Z,19.85
2017-06-27T00:18:56.976Z,19.79
2017-06-27T00:19:01.283Z,19.78
2017-06-27T00:19:05.472Z,19.78
2017-06-27T00:19:09.902Z,19.87
2017-06-27T00:19:14.237Z,19.78
2017-06-27T00:19:18.653Z,19.83
2017-06-27T00:19:23.074Z,19.78
2017-06-27T00:19:27.494Z,19.76
2017-06-27T00:19:31.919Z,19.75
2017-06-27T00:19:36.347Z,19.79
2017-06-27T00:19:40.533Z,19.79
2017-06-27T00:19:44.835Z,19.72
2017-06-27T00:19:49.134Z,19.78
2017-06-27T00:19:53.583Z,19.72
2017-06-27T00:19:57.888Z,19.75
2017-06-27T00:20:02.408Z,19.78
2017-06-27T00:20:06.595Z,19.65
2017-06-27T00:20:11.021Z,19.67
2017-06-27T00:20:15.446Z,19.61
2017-06-27T00:20:19.782Z,19.65
2017-06-27T00:20:24.082Z,19.7
2017-06-27T00:20:28.383Z,19.67
2017-06-27T00:20:32.694Z,19.75
2017-06-27T00:20:36.771Z,19.64
2017-06-27T00:20:40.961Z,19.67
2017-06-27T00:20:45.388Z,19.65
2017-06-27T00:20:49.693Z,19.65
2017-06-27T00:20:54.131Z,19.64
2017-06-27T00:20:58.563Z,19.67
2017-06-27T00:21:03.121Z,19.65
2017-06-27T00:21:07.424Z,19.62
2017-06-27T00:21:11.848Z,19.7
2017-06-27T00:21:16.267Z,19.55
2017-06-27T00:21:20.578Z,19.53
2017-06-27T00:21:24.912Z,19.62
2017-06-27T00:21:29.219Z,19.5
2017-06-27T00:21:33.644Z,19.55
2017-06-27T00:21:38.064Z,19.61
2017-06-27T00:21:42.371Z,19.55
2017-06-27T00:21:46.822Z,19.52
2017-06-27T00:21:51.261Z,19.5
2017-06-27T00:21:55.572Z,19.65
2017-06-27T00:21:59.993Z,19.55
2017-06-27T00:22:04.302Z,19.57
2017-06-27T00:22:08.736Z,19.55
2017-06-27T00:22:13.040Z,19.5
2017-06-27T00:22:17.345Z,19.57
2017-06-27T00:22:21.775Z,19.57
2017-06-27T00:22:26.208Z,19.57
2017-06-27T00:22:30.636Z,19.55
2017-06-27T00:22:34.951Z,19.53
2017-06-27T00:22:39.373Z,19.53
2017-06-27T00:22:43.794Z,19.52
2017-06-27T00:22:48.103Z,19.55
2017-06-27T00:22:52.410Z,19.58
2017-06-27T00:22:56.721Z,19.52
2017-06-27T00:23:01.147Z,19.53
2017-06-27T00:23:05.342Z,19.58
2017-06-27T00:23:09.777Z,19.57
2017-06-27T00:23:14.204Z,19.52
2017-06-27T00:23:18.634Z,19.5
2017-06-27T00:23:22.942Z,19.55
2017-06-27T00:23:27.366Z,19.52
2017-06-27T00:23:31.793Z,19.52
2017-06-27T00:23:36.220Z,19.5
2017-06-27T00:23:40.522Z,19.55
2017-06-27T00:23:44.824Z,19.5
2017-06-27T00:23:49.016Z,19.52
2017-06-27T00:23:53.334Z,19.52
2017-06-27T00:23:57.633Z,19.5
2017-06-27T00:24:02.056Z,19.47
2017-06-27T00:24:06.241Z,19.52
2017-06-27T00:24:10.666Z,19.5
2017-06-27T00:24:15.122Z,19.42
2017-06-27T00:24:19.542Z,19.47
2017-06-27T00:24:23.963Z,19.47
2017-06-27T00:24:28.378Z,19.5
2017-06-27T00:24:32.686Z,19.53
2017-06-27T00:24:36.998Z,19.5
2017-06-27T00:24:41.600Z,19.47
2017-06-27T00:24:45.899Z,19.47
2017-06-27T00:24:50.205Z,19.55
2017-06-27T00:24:54.627Z,19.52
2017-06-27T00:24:59.056Z,19.45
2017-06-27T00:25:03.684Z,19.45
2017-06-27T00:25:07.989Z,19.55
2017-06-27T00:25:12.411Z,19.52
2017-06-27T00:25:16.835Z,19.52
2017-06-27T00:25:21.263Z,19.4
2017-06-27T00:25:25.682Z,19.45
2017-06-27T00:25:29.988Z,19.43
2017-06-27T00:25:34.287Z,19.42
2017-06-27T00:25:38.710Z,19.5
2017-06-27T00:25:43.052Z,19.53
2017-06-27T00:25:47.472Z,19.46
2017-06-27T00:25:51.657Z,19.46
2017-06-27T00:25:56.079Z,19.45
2017-06-27T00:26:00.500Z,19.42
2017-06-27T00:26:04.697Z,19.47
2017-06-27T00:26:09.117Z,19.47
2017-06-27T00:26:13.546Z,19.42
2017-06-27T00:26:17.969Z,19.47
2017-06-27T00:26:22.282Z,19.45
2017-06-27T00:26:26.476Z,19.38
2017-06-27T00:26:30.900Z,19.45
2017-06-27T00:26:35.209Z,19.45
2017-06-27T00:26:39.629Z,19.43
2017-06-27T00:26:44.053Z,19.4
2017-06-27T00:26:48.507Z,19.42
2017-06-27T00:26:52.810Z,19.42
2017-06-27T00:26:57.115Z,19.47
2017-06-27T00:27:01.538Z,19.43
2017-06-27T00:27:05.848Z,19.43
2017-06-27T00:27:10.274Z,19.39
2017-06-27T00:27:14.697Z,19.5
2017-06-27T00:27:19.004Z,19.43
2017-06-27T00:27:23.430Z,19.42
2017-06-27T00:27:27.856Z,19.42
2017-06-27T00:27:32.169Z,19.42
2017-06-27T00:27:36.585Z,19.35
2017-06-27T00:27:40.773Z,19.43
2017-06-27T00:27:45.075Z,19.38
2017-06-27T00:27:49.501Z,19.35
2017-06-27T00:27:53.923Z,19.38
2017-06-27T00:27:58.227Z,19.43
2017-06-27T00:28:02.643Z,19.43
2017-06-27T00:28:06.712Z,19.35
2017-06-27T00:28:11.137Z,19.46
2017-06-27T00:28:15.594Z,19.46
2017-06-27T00:28:20.019Z,19.46
2017-06-27T00:28:24.324Z,19.5
2017-06-27T00:28:28.627Z,19.43
2017-06-27T00:28:32.960Z,19.42
2017-06-27T00:28:37.382Z,19.39
2017-06-27T00:28:41.563Z,19.39
2017-06-27T00:28:45.982Z,19.38
2017-06-27T00:28:50.402Z,19.38
2017-06-27T00:28:54.752Z,19.42
2017-06-27T00:28:59.180Z,19.35
2017-06-27T00:29:03.607Z,19.35
2017-06-27T00:29:08.023Z,19.34
2017-06-27T00:29:12.445Z,19.3
2017-06-27T00:29:16.873Z,19.34
2017-06-27T00:29:21.188Z,19.35
2017-06-27T00:29:25.609Z,19.38
2017-06-27T00:29:30.029Z,19.4
2017-06-27T00:29:34.327Z,19.34
2017-06-27T00:29:38.635Z,19.35
2017-06-27T00:29:43.061Z,19.32
2017-06-27T00:29:47.481Z,19.38
2017-06-27T00:29:51.783Z,19.31
2017-06-27T00:29:56.206Z,19.32
2017-06-27T00:30:00.674Z,19.32
2017-06-27T00:30:05.351Z,19.31
2017-06-27T00:30:09.776Z,19.35
2017-06-27T00:30:14.202Z,19.32
2017-06-27T00:30:18.622Z,19.34
2017-06-27T00:30:23.047Z,19.24
2017-06-27T00:30:27.235Z,19.28
2017-06-27T00:30:31.419Z,19.25
2017-06-27T00:30:35.725Z,19.25
2017-06-27T00:30:40.035Z,19.3
2017-06-27T00:30:44.235Z,19.23
2017-06-27T00:30:48.656Z,19.24
2017-06-27T00:30:53.073Z,19.27
2017-06-27T00:30:57.497Z,19.27
2017-06-27T00:31:02.225Z,19.27
2017-06-27T00:31:06.650Z,19.27
2017-06-27T00:31:11.076Z,19.2
2017-06-27T00:31:15.500Z,19.21
2017-06-27T00:31:19.919Z,19.27
2017-06-27T00:31:24.229Z,19.24
2017-06-27T00:31:28.539Z,19.13
2017-06-27T00:31:32.959Z,19.12
2017-06-27T00:31:37.384Z,19.15
2017-06-27T00:31:41.801Z,19.21
2017-06-27T00:31:46.105Z,19.12
2017-06-27T00:31:50.538Z,19.16
2017-06-27T00:31:54.980Z,19.15
2017-06-27T00:31:59.168Z,19.24
2017-06-27T00:32:03.590Z,19.1
2017-06-27T00:32:07.781Z,19.15
2017-06-27T00:32:12.250Z,19.13
2017-06-27T00:32:16.559Z,19.16
2017-06-27T00:32:20.869Z,19.09
2017-06-27T00:32:25.289Z,19.12
2017-06-27T00:32:29.755Z,19.13
2017-06-27T00:32:34.176Z,19.24
2017-06-27T00:32:38.480Z,19.12
2017-06-27T00:32:42.897Z,19.12
2017-06-27T00:32:47.320Z,19.12
2017-06-27T00:32:51.630Z,19.12
2017-06-27T00:32:56.055Z,19.09
2017-06-27T00:33:00.477Z,19.12
2017-06-27T00:33:05.153Z,19.09
2017-06-27T00:33:09.464Z,19.12
2017-06-27T00:33:13.781Z,19.07
2017-06-27T00:33:18.085Z,19.02
2017-06-27T00:33:22.507Z,19.05
2017-06-27T00:33:26.811Z,18.99
2017-06-27T00:33:31.245Z,19.07
2017-06-27T00:33:35.710Z,19.09
2017-06-27T00:33:40.132Z,19.01
2017-06-27T00:33:44.553Z,18.99
2017-06-27T00:33:48.978Z,19.07
2017-06-27T00:33:53.412Z,19.05
2017-06-27T00:33:57.717Z,19.06
2017-06-27T00:34:02.027Z,19.06
2017-06-27T00:34:05.861Z,18.99
2017-06-27T00:34:10.281Z,18.99
2017-06-27T00:34:14.697Z,19.07
2017-06-27T00:34:19.132Z,18.93
2017-06-27T00:34:23.553Z,19.07
2017-06-27T00:34:27.858Z,18.96
2017-06-27T00:34:32.283Z,18.96
2017-06-27T00:34:36.707Z,19.01
2017-06-27T00:34:41.138Z,18.96
2017-06-27T00:34:45.563Z,18.93
2017-06-27T00:34:49.983Z,19.01
2017-06-27T00:34:54.172Z,18.96
2017-06-27T00:34:58.364Z,18.96
2017-06-27T00:35:02.798Z,18.91
2017-06-27T00:35:07.137Z,18.97
2017-06-27T00:35:11.561Z,19.01
2017-06-27T00:35:15.871Z,19.05
2017-06-27T00:35:20.301Z,19.01
2017-06-27T00:35:24.613Z,18.94
2017-06-27T00:35:28.796Z,18.96
2017-06-27T00:35:33.100Z,18.96
2017-06-27T00:35:37.526Z,18.97
2017-06-27T00:35:41.712Z,19.02
2017-06-27T00:35:46.137Z,18.87
2017-06-27T00:35:50.560Z,18.93
2017-06-27T00:35:54.980Z,18.9
2017-06-27T00:35:59.167Z,19.06
2017-06-27T00:36:03.480Z,18.86
2017-06-27T00:36:07.905Z,18.99
2017-06-27T00:36:12.335Z,18.97
2017-06-27T00:36:16.756Z,18.93
2017-06-27T00:36:21.181Z,18.86
2017-06-27T00:36:25.605Z,18.86
2017-06-27T00:36:30.035Z,18.93
2017-06-27T00:36:34.462Z,19.01
2017-06-27T00:36:38.880Z,18.86
2017-06-27T00:36:43.069Z,18.9
2017-06-27T00:36:47.493Z,18.89
2017-06-27T00:36:51.690Z,18.87
2017-06-27T00:36:55.759Z,18.86
2017-06-27T00:37:00.183Z,18.9
2017-06-27T00:37:04.670Z,18.99
2017-06-27T00:37:09.096Z,18.97
2017-06-27T00:37:13.524Z,18.93
2017-06-27T00:37:17.829Z,18.94
2017-06-27T00:37:22.253Z,18.91
2017-06-27T00:37:26.673Z,19.01
2017-06-27T00:37:31.093Z,18.96
2017-06-27T00:37:35.519Z,18.91
2017-06-27T00:37:39.822Z,18.86
2017-06-27T00:37:44.245Z,18.93
2017-06-27T00:37:48.677Z,18.93
2017-06-27T00:37:53.106Z,18.93
2017-06-27T00:37:57.299Z,18.97
2017-06-27T00:38:01.724Z,18.93
2017-06-27T00:38:06.140Z,18.97
2017-06-27T00:38:10.563Z,18.91
2017-06-27T00:38:14.986Z,18.91
2017-06-27T00:38:19.437Z,18.84
2017-06-27T00:38:23.861Z,18.9
2017-06-27T00:38:28.045Z,18.93
2017-06-27T00:38:32.463Z,18.91
2017-06-27T00:38:36.882Z,18.93
2017-06-27T00:38:41.188Z,18.91
2017-06-27T00:38:45.636Z,18.93
2017-06-27T00:38:49.943Z,18.89
2017-06-27T00:38:54.361Z,18.91
2017-06-27T00:38:58.784Z,18.94
2017-06-27T00:39:03.253Z,18.86
2017-06-27T00:39:07.676Z,18.89
2017-06-27T00:39:12.097Z,18.93
2017-06-27T00:39:16.513Z,18.9
2017-06-27T00:39:20.933Z,18.89
2017-06-27T00:39:25.357Z,18.93
2017-06-27T00:39:29.542Z,18.9
2017-06-27T00:39:33.840Z,18.89
2017-06-27T00:39:38.269Z,18.89
2017-06-27T00:39:42.830Z,18.94
2017-06-27T00:39:47.255Z,18.9
2017-06-27T00:39:51.561Z,18.87
2017-06-27T00:39:55.979Z,18.89
2017-06-27T00:40:00.399Z,18.86
2017-06-27T00:40:04.701Z,18.93
2017-06-27T00:40:09.132Z,18.89
2017-06-27T00:40:13.553Z,18.94
2017-06-27T00:40:17.973Z,18.93
2017-06-27T00:40:22.399Z,18.87
2017-06-27T00:40:26.819Z,18.87
2017-06-27T00:40:31.258Z,18.87
2017-06-27T00:40:35.565Z,18.93
2017-06-27T00:40:39.749Z,18.9
2017-06-27T00:40:44.167Z,18.94
2017-06-27T00:40:48.484Z,18.89
2017-06-27T00:40:52.789Z,18.86
2017-06-27T00:40:57.213Z,18.9
2017-06-27T00:41:01.789Z,18.96
2017-06-27T00:41:06.087Z,18.91
2017-06-27T00:41:10.513Z,18.9
2017-06-27T00:41:14.939Z,18.86
2017-06-27T00:41:19.359Z,18.9
2017-06-27T00:41:23.780Z,18.9
2017-06-27T00:41:28.085Z,18.9
2017-06-27T00:41:32.514Z,18.87
2017-06-27T00:41:36.943Z,18.9
2017-06-27T00:41:41.018Z,18.9
2017-06-27T00:41:45.316Z,18.86
2017-06-27T00:41:49.620Z,18.87
2017-06-27T00:41:54.082Z,18.94
2017-06-27T00:41:58.393Z,18.9
2017-06-27T00:42:03.063Z,18.93
2017-06-27T00:42:07.251Z,18.93
2017-06-27T00:42:11.678Z,18.89
2017-06-27T00:42:16.108Z,18.91
2017-06-27T00:42:20.530Z,18.84
2017-06-27T00:42:24.953Z,18.9
2017-06-27T00:42:29.374Z,18.9
2017-06-27T00:42:33.681Z,18.9
2017-06-27T00:42:38.109Z,18.89
2017-06-27T00:42:42.293Z,18.86
2017-06-27T00:42:46.717Z,18.89
2017-06-27T00:42:51.133Z,18.91
2017-06-27T00:42:55.554Z,18.89
2017-06-27T00:43:00.013Z,18.89
2017-06-27T00:43:04.332Z,18.89
2017-06-27T00:43:08.517Z,18.91
2017-06-27T00:43:12.822Z,18.86
2017-06-27T00:43:17.252Z,18.84
2017-06-27T00:43:21.674Z,18.84
2017-06-27T00:43:26.092Z,18.86
2017-06-27T00:43:30.401Z,18.86
2017-06-27T00:43:34.819Z,18.83
2017-06-27T00:43:39.245Z,18.91
2017-06-27T00:43:43.552Z,18.83
2017-06-27T00:43:47.855Z,18.9
2017-06-27T00:43:52.160Z,18.9
2017-06-27T00:43:56.462Z,18.84
2017-06-27T00:44:00.893Z,18.91
2017-06-27T00:44:05.433Z,18.84
2017-06-27T00:44:09.742Z,18.82
2017-06-27T00:44:14.161Z,18.83
2017-06-27T00:44:18.580Z,18.89
2017-06-27T00:44:23.005Z,18.89
2017-06-27T00:44:27.429Z,18.86
2017-06-27T00:44:31.852Z,18.87
2017-06-27T00:44:36.269Z,18.86
2017-06-27T00:44:40.574Z,18.84
2017-06-27T00:44:45.051Z,18.82
2017-06-27T00:44:49.475Z,18.91
2017-06-27T00:44:53.897Z,18.84
2017-06-27T00:44:58.321Z,18.86
2017-06-27T00:45:02.772Z,18.84
2017-06-27T00:45:07.110Z,18.82
2017-06-27T00:45:11.423Z,18.84
2017-06-27T00:45:15.845Z,18.83
2017-06-27T00:45:20.268Z,18.83
2017-06-27T00:45:24.691Z,18.86
2017-06-27T00:45:29.005Z,18.86
2017-06-27T00:45:33.307Z,18.78
2017-06-27T00:45:37.492Z,18.82
2017-06-27T00:45:41.685Z,18.87
2017-06-27T00:45:46.117Z,18.83
2017-06-27T00:45:50.542Z,18.83
2017-06-27T00:45:54.732Z,18.86
2017-06-27T00:45:59.157Z,18.84
2017-06-27T00:46:03.930Z,18.86
2017-06-27T00:46:08.350Z,18.87
2017-06-27T00:46:12.777Z,18.87
2017-06-27T00:46:17.198Z,18.76
2017-06-27T00:46:21.618Z,18.84
2017-06-27T00:46:26.038Z,18.72
2017-06-27T00:46:30.340Z,18.84
2017-06-27T00:46:34.665Z,18.76
2017-06-27T00:46:39.094Z,18.84
2017-06-27T00:46:43.518Z,18.87
2017-06-27T00:46:47.938Z,18.83
2017-06-27T00:46:52.246Z,18.76
2017-06-27T00:46:56.585Z,18.86
2017-06-27T00:47:01.006Z,18.86
2017-06-27T00:47:05.393Z,18.74
2017-06-27T00:47:09.812Z,18.89
2017-06-27T00:47:14.234Z,18.9
2017-06-27T00:47:18.671Z,18.82
2017-06-27T00:47:23.127Z,18.75
2017-06-27T00:47:27.433Z,18.86
2017-06-27T00:47:31.852Z,18.89
2017-06-27T00:47:36.276Z,18.89
2017-06-27T00:47:40.703Z,18.74
2017-06-27T00:47:45.014Z,18.83
2017-06-27T00:47:49.434Z,18.89
2017-06-27T00:47:53.853Z,18.84
2017-06-27T00:47:58.280Z,18.89
2017-06-27T00:48:03.007Z,18.79
2017-06-27T00:48:07.312Z,18.89
2017-06-27T00:48:11.615Z,18.83
2017-06-27T00:48:15.914Z,18.87
2017-06-27T00:48:20.342Z,18.72
2017-06-27T00:48:24.653Z,18.87
2017-06-27T00:48:28.953Z,18.89
2017-06-27T00:48:33.378Z,18.89
2017-06-27T00:48:37.687Z,18.78
2017-06-27T00:48:42.117Z,18.9
2017-06-27T00:48:46.540Z,18.78
2017-06-27T00:48:50.961Z,18.75
2017-06-27T00:48:55.384Z,18.76
2017-06-27T00:48:59.694Z,18.76
2017-06-27T00:49:04.255Z,18.74
2017-06-27T00:49:08.681Z,18.79
2017-06-27T00:49:13.106Z,18.82
2017-06-27T00:49:17.409Z,18.79
2017-06-27T00:49:21.830Z,18.76
2017-06-27T00:49:26.255Z,18.76
2017-06-27T00:49:30.682Z,18.79
2017-06-27T00:49:35.107Z,18.69
2017-06-27T00:49:39.529Z,18.74
2017-06-27T00:49:43.714Z,18.76
2017-06-27T00:49:48.136Z,18.74
2017-06-27T00:49:52.578Z,18.75
2017-06-27T00:49:56.891Z,18.78
2017-06-27T00:50:01.316Z,18.75
2017-06-27T00:50:05.505Z,18.76
2017-06-27T00:50:09.811Z,18.75
2017-06-27T00:50:14.119Z,18.76
2017-06-27T00:50:18.541Z,18.76
2017-06-27T00:50:22.842Z,18.75
2017-06-27T00:50:27.265Z,18.71
2017-06-27T00:50:31.463Z,18.75
2017-06-27T00:50:35.888Z,18.76
2017-06-27T00:50:40.303Z,18.76
2017-06-27T00:50:44.608Z,18.72
2017-06-27T00:50:48.910Z,18.79
2017-06-27T00:50:53.341Z,18.75
2017-06-27T00:50:57.782Z,18.74
2017-06-27T00:51:02.358Z,18.74
2017-06-27T00:51:06.780Z,18.75
2017-06-27T00:51:11.207Z,18.76
2017-06-27T00:51:15.631Z,18.74
2017-06-27T00:51:20.061Z,18.76
2017-06-27T00:51:24.481Z,18.75
2017-06-27T00:51:28.791Z,18.71
2017-06-27T00:51:33.098Z,18.74
2017-06-27T00:51:37.526Z,18.75
2017-06-27T00:51:41.485Z,18.74
2017-06-27T00:51:45.905Z,18.72
2017-06-27T00:51:50.322Z,18.75
2017-06-27T00:51:54.503Z,18.75
2017-06-27T00:51:58.696Z,18.75
2017-06-27T00:52:03.118Z,18.74
2017-06-27T00:52:07.540Z,18.75
2017-06-27T00:52:11.957Z,18.76
2017-06-27T00:52:16.380Z,18.76
2017-06-27T00:52:20.579Z,18.79
2017-06-27T00:52:25.000Z,18.69
2017-06-27T00:52:29.427Z,18.78
2017-06-27T00:52:33.736Z,18.74
2017-06-27T00:52:38.161Z,18.75
2017-06-27T00:52:42.360Z,18.78
2017-06-27T00:52:46.789Z,18.76
2017-06-27T00:52:51.211Z,18.75
2017-06-27T00:52:55.628Z,18.71
2017-06-27T00:52:59.816Z,18.79
2017-06-27T00:53:04.396Z,18.76
2017-06-27T00:53:08.596Z,18.68
2017-06-27T00:53:12.900Z,18.76
2017-06-27T00:53:17.320Z,18.71
2017-06-27T00:53:21.637Z,18.74
2017-06-27T00:53:26.058Z,18.71
2017-06-27T00:53:30.488Z,18.74
2017-06-27T00:53:34.903Z,18.78
2017-06-27T00:53:39.320Z,18.75
2017-06-27T00:53:43.505Z,18.72
2017-06-27T00:53:47.971Z,18.79
2017-06-27T00:53:52.395Z,18.75
2017-06-27T00:53:56.817Z,18.76
2017-06-27T00:54:01.236Z,18.76
2017-06-27T00:54:05.654Z,18.74
2017-06-27T00:54:10.092Z,18.75
2017-06-27T00:54:14.515Z,18.74
2017-06-27T00:54:18.938Z,18.76
2017-06-27T00:54:23.242Z,18.76
2017-06-27T00:54:27.668Z,18.74
2017-06-27T00:54:32.093Z,18.75
2017-06-27T00:54:36.396Z,18.76
2017-06-27T00:54:40.818Z,18.78
2017-06-27T00:54:45.126Z,18.78
2017-06-27T00:54:49.562Z,18.89
2017-06-27T00:54:53.865Z,18.79
2017-06-27T00:54:58.170Z,18.79
2017-06-27T00:55:02.844Z,18.74
2017-06-27T00:55:07.149Z,18.76
2017-06-27T00:55:11.573Z,18.78
2017-06-27T00:55:16.002Z,18.78
2017-06-27T00:55:20.423Z,18.76
2017-06-27T00:55:24.847Z,18.76
2017-06-27T00:55:29.154Z,18.76
2017-06-27T00:55:33.579Z,18.87
2017-06-27T00:55:37.662Z,18.74
2017-06-27T00:55:41.969Z,18.75
2017-06-27T00:55:46.389Z,18.84
2017-06-27T00:55:50.694Z,18.89
2017-06-27T00:55:55.123Z,18.75
2017-06-27T00:55:59.548Z,18.87
2017-06-27T00:56:03.970Z,18.79
2017-06-27T00:56:08.389Z,18.75
2017-06-27T00:56:12.813Z,18.78
2017-06-27T00:56:17.231Z,18.82
2017-06-27T00:56:21.656Z,18.72
2017-06-27T00:56:26.073Z,18.86
2017-06-27T00:56:30.504Z,18.75
2017-06-27T00:56:34.456Z,18.9